Time;durP1;ratioP1;P1;durP2;ratioP2;P2;SDS_P1;SDS_P2;PMS_P1;PMS_P2;Temp;Humidity;BMP_temperature;BMP_pressure;BME280_temperature;BME280_humidity;BME280_pressure;Samples;Min_cycle;Max_cycle;Signal;HPM_P1;HPM_P2
2023/07/07 00:00:09;;;;;;;5.75;4.18;;;;;;;17.65;100.00;93190.25;5071104;28;20556;-73
2023/07/07 00:02:36;;;;;;;7.75;4.85;;;;;;;17.57;100.00;93181.94;5070759;28;20098;-73
2023/07/07 00:05:02;;;;;;;5.90;4.57;;;;;;;17.56;100.00;93189.97;5089003;28;20048;-73
2023/07/07 00:07:31;;;;;;;8.05;5.07;;;;;;;17.50;100.00;93187.34;5082147;28;20052;-73
2023/07/07 00:09:58;;;;;;;8.88;4.47;;;;;;;17.48;100.00;93197.22;5070261;28;20058;-73
2023/07/07 00:12:26;;;;;;;7.70;5.10;;;;;;;17.46;100.00;93196.66;5070440;28;20052;-73
2023/07/07 00:14:52;;;;;;;9.02;4.90;;;;;;;17.38;100.00;93185.97;5071857;28;20497;-73
2023/07/07 00:17:19;;;;;;;8.25;5.13;;;;;;;17.37;100.00;93185.22;5070523;28;20053;-73
2023/07/07 00:19:47;;;;;;;7.43;4.68;;;;;;;17.33;100.00;93187.53;5070365;28;20093;-73
2023/07/07 00:22:14;;;;;;;6.88;4.63;;;;;;;17.29;100.00;93183.09;5070568;28;20052;-72
2023/07/07 00:24:41;;;;;;;7.00;4.53;;;;;;;17.18;100.00;93174.47;5073780;28;20048;-73
2023/07/07 00:27:07;;;;;;;7.25;4.60;;;;;;;17.25;100.00;93180.22;5070319;28;20048;-73
2023/07/07 00:29:36;;;;;;;6.53;4.72;;;;;;;17.26;100.00;93184.38;5069836;28;20516;-73
2023/07/07 00:32:02;;;;;;;6.45;4.50;;;;;;;17.26;100.00;93183.59;5070763;28;20659;-73
2023/07/07 00:34:29;;;;;;;8.18;5.10;;;;;;;17.20;100.00;93177.59;5079598;28;20044;-73
2023/07/07 00:36:56;;;;;;;6.38;4.75;;;;;;;17.24;100.00;93176.06;5088871;28;20083;-73
2023/07/07 00:39:23;;;;;;;7.13;5.10;;;;;;;17.23;100.00;93179.69;5076795;28;20395;-73
2023/07/07 00:41:49;;;;;;;6.63;4.65;;;;;;;17.23;100.00;93187.47;5079908;28;20101;-73
2023/07/07 00:44:16;;;;;;;6.55;4.45;;;;;;;17.21;100.00;93185.13;5074657;28;21112;-73
2023/07/07 00:46:44;;;;;;;6.40;4.45;;;;;;;17.16;100.00;93186.91;5088134;28;20504;-73
2023/07/07 00:49:15;;;;;;;7.35;4.70;;;;;;;17.09;100.00;93177.53;5079513;28;20044;-73
2023/07/07 00:51:46;;;;;;;8.93;4.93;;;;;;;17.13;100.00;93179.63;5071145;28;20060;-73
2023/07/07 00:54:17;;;;;;;7.53;4.70;;;;;;;17.07;100.00;93173.63;5081155;28;20044;-72
2023/07/07 00:56:48;;;;;;;6.88;4.70;;;;;;;17.12;100.00;93181.44;5075161;28;20094;-72
2023/07/07 00:59:21;;;;;;;6.30;4.68;;;;;;;16.98;100.00;93159.53;5069788;28;20044;-73
2023/07/07 01:01:52;;;;;;;7.80;4.90;;;;;;;17.05;100.00;93192.06;5069807;28;20093;-72
2023/07/07 01:04:19;;;;;;;5.63;4.30;;;;;;;17.01;100.00;93193.56;5069472;28;20048;-72
2023/07/07 01:06:51;;;;;;;6.22;4.45;;;;;;;16.98;100.00;93194.03;5071740;28;20509;-72
2023/07/07 01:09:17;;;;;;;9.13;4.78;;;;;;;16.89;100.00;93190.38;5070508;28;20052;-73
2023/07/07 01:11:46;;;;;;;10.95;5.20;;;;;;;16.80;100.00;93169.28;5079945;28;20056;-72
2023/07/07 01:14:18;;;;;;;6.47;4.57;;;;;;;16.88;100.00;93186.97;5069583;28;20052;-72
2023/07/07 01:16:56;;;;;;;6.85;4.68;;;;;;;16.88;100.00;93181.00;5069103;28;20048;-72
2023/07/07 01:19:54;;;;;;;8.15;5.03;;;;;;;16.89;100.00;93180.75;5071340;28;20041;-73
2023/07/07 01:22:40;;;;;;;6.97;5.20;;;;;;;16.85;100.00;93178.91;5073109;28;20067;-73
2023/07/07 01:25:19;;;;;;;7.47;4.55;;;;;;;16.80;100.00;93179.66;5085597;28;20496;-73
2023/07/07 01:28:11;;;;;;;6.25;4.82;;;;;;;16.81;100.00;93187.19;5068799;28;20110;-72
2023/07/07 01:30:45;;;;;;;7.05;4.70;;;;;;;16.82;100.00;93196.53;5075134;28;20546;-72
2023/07/07 01:33:16;;;;;;;6.88;4.70;;;;;;;16.75;100.00;93190.78;5069353;28;20048;-72
2023/07/07 01:35:43;;;;;;;7.50;5.40;;;;;;;16.75;100.00;93195.19;5081100;28;20094;-73
2023/07/07 01:38:30;;;;;;;5.70;4.25;;;;;;;16.74;100.00;93196.19;5078471;28;20063;-72
2023/07/07 01:41:03;;;;;;;8.38;5.35;;;;;;;16.66;100.00;93200.06;5084736;28;20055;-71
2023/07/07 01:43:37;;;;;;;6.45;4.80;;;;;;;16.60;100.00;93190.66;5069315;28;20060;-71
2023/07/07 01:46:12;;;;;;;9.90;5.68;;;;;;;16.57;100.00;93204.88;5071405;28;20129;-72
2023/07/07 01:48:46;;;;;;;8.13;4.45;;;;;;;16.58;100.00;93195.31;5068435;28;20044;-72
2023/07/07 01:51:16;;;;;;;7.28;5.00;;;;;;;16.41;100.00;93175.47;5081059;28;20106;-72
2023/07/07 01:53:45;;;;;;;8.43;4.72;;;;;;;16.51;100.00;93196.31;5073699;28;20094;-73
2023/07/07 01:56:15;;;;;;;7.35;5.13;;;;;;;16.51;100.00;93188.53;5069004;28;20590;-73
2023/07/07 01:58:44;;;;;;;7.13;5.07;;;;;;;16.41;100.00;93191.03;5078509;28;20045;-73
2023/07/07 02:01:13;;;;;;;7.10;5.18;;;;;;;16.48;100.00;93194.19;5070271;28;20098;-73
2023/07/07 02:03:40;;;;;;;6.30;5.00;;;;;;;16.29;100.00;93163.44;5067722;28;20056;-73
2023/07/07 02:06:06;;;;;;;6.43;4.93;;;;;;;16.56;100.00;93203.31;5068461;28;20040;-72
2023/07/07 02:08:33;;;;;;;7.55;5.57;;;;;;;16.53;100.00;93194.22;5069594;28;20122;-72
2023/07/07 02:11:00;;;;;;;6.60;4.82;;;;;;;16.58;100.00;93196.09;5068367;28;20052;-72
2023/07/07 02:13:26;;;;;;;8.70;4.68;;;;;;;16.54;100.00;93195.78;5070013;28;20129;-72
2023/07/07 02:15:53;;;;;;;7.10;4.60;;;;;;;16.47;100.00;93186.69;5068477;28;20099;-72
2023/07/07 02:18:26;;;;;;;6.47;4.55;;;;;;;16.53;100.00;93198.66;5068092;28;20102;-72
2023/07/07 02:20:53;;;;;;;7.05;4.80;;;;;;;16.53;100.00;93196.06;5071853;28;20498;-72
2023/07/07 02:23:19;;;;;;;7.95;4.95;;;;;;;16.49;100.00;93205.34;5067917;28;20498;-72
2023/07/07 02:25:46;;;;;;;8.55;4.85;;;;;;;16.48;100.00;93198.59;5072000;28;20174;-72
2023/07/07 02:28:13;;;;;;;6.63;4.55;;;;;;;16.47;100.00;93200.41;5068261;28;20106;-73
2023/07/07 02:30:40;;;;;;;7.20;4.90;;;;;;;16.43;100.00;93187.16;5067703;28;20045;-73
2023/07/07 02:33:08;;;;;;;7.05;4.55;;;;;;;16.48;100.00;93190.81;5071424;28;20048;-72
2023/07/07 02:35:36;;;;;;;6.93;4.75;;;;;;;16.45;100.00;93186.91;5068664;28;20052;-73
2023/07/07 02:38:03;;;;;;;6.95;4.95;;;;;;;16.38;100.00;93184.53;5071052;28;20078;-72
2023/07/07 02:40:30;;;;;;;6.35;4.57;;;;;;;16.34;100.00;93180.84;5086339;28;20044;-72
2023/07/07 02:42:57;;;;;;;7.35;5.00;;;;;;;16.35;100.00;93186.81;5082149;28;20048;-73
2023/07/07 02:45:23;;;;;;;7.57;4.68;;;;;;;16.34;100.00;93190.44;5068274;28;20052;-72
2023/07/07 02:47:50;;;;;;;7.00;5.32;;;;;;;16.31;100.00;93191.72;5067845;28;20049;-73
2023/07/07 02:50:17;;;;;;;8.25;5.28;;;;;;;16.21;100.00;93184.66;5068309;28;20089;-72
2023/07/07 02:52:45;;;;;;;7.38;4.18;;;;;;;16.25;100.00;93200.47;5067224;28;20041;-72
2023/07/07 02:55:12;;;;;;;6.82;5.03;;;;;;;16.24;100.00;93198.91;5070925;28;20098;-72
2023/07/07 02:57:39;;;;;;;7.22;5.43;;;;;;;16.24;100.00;93197.09;5068198;28;20126;-73
2023/07/07 03:00:09;;;;;;;8.18;4.90;;;;;;;16.00;100.00;93168.88;5086088;28;20127;-72
2023/07/07 03:02:36;;;;;;;6.13;5.15;;;;;;;16.22;100.00;93198.38;5071188;28;20052;-72
2023/07/07 03:05:03;;;;;;;8.10;5.70;;;;;;;16.22;100.00;93201.75;5075372;28;20056;-73
2023/07/07 03:07:30;;;;;;;7.47;5.40;;;;;;;16.16;100.00;93203.50;5067999;28;20524;-72
2023/07/07 03:09:58;;;;;;;11.48;5.80;;;;;;;16.17;100.00;93202.47;5074244;28;20790;-72
2023/07/07 03:12:25;;;;;;;9.35;5.28;;;;;;;16.24;100.00;93198.91;5072167;28;20094;-72
2023/07/07 03:14:54;;;;;;;8.65;5.78;;;;;;;16.25;100.00;93196.06;5070296;28;20129;-73
2023/07/07 03:17:21;;;;;;;8.88;5.50;;;;;;;16.24;100.00;93196.34;5071131;28;20048;-73
2023/07/07 03:19:48;;;;;;;9.60;5.80;;;;;;;16.24;100.00;93191.91;5072041;28;20045;-73
2023/07/07 03:22:15;;;;;;;9.00;5.68;;;;;;;16.24;100.00;93191.91;5071599;28;20444;-73
2023/07/07 03:24:41;;;;;;;8.13;5.53;;;;;;;16.25;100.00;93182.34;5070948;28;20505;-73
2023/07/07 03:27:10;;;;;;;9.40;5.70;;;;;;;16.27;100.00;93180.28;5071091;28;20567;-72
2023/07/07 03:29:36;;;;;;;7.85;5.75;;;;;;;16.37;100.00;93189.94;5071204;28;20090;-72
2023/07/07 03:32:03;;;;;;;9.60;5.97;;;;;;;16.43;100.00;93192.34;5070136;28;20118;-72
2023/07/07 03:34:30;;;;;;;9.18;6.32;;;;;;;16.51;100.00;93198.91;5075650;28;20094;-72
2023/07/07 03:36:56;;;;;;;9.55;6.32;;;;;;;16.55;100.00;93197.38;5071577;28;20109;-72
2023/07/07 03:39:23;;;;;;;8.32;5.47;;;;;;;16.58;100.00;93198.69;5072174;28;20045;-72
2023/07/07 03:41:50;;;;;;;9.52;6.05;;;;;;;16.65;100.00;93193.28;5079304;28;20604;-72
2023/07/07 03:44:18;;;;;;;9.45;6.03;;;;;;;16.60;100.00;93185.47;5074974;28;20106;-72
2023/07/07 03:46:45;;;;;;;7.85;5.57;;;;;;;16.73;100.00;93198.03;5070438;28;20048;-72
2023/07/07 03:49:11;;;;;;;8.00;5.45;;;;;;;16.85;100.00;93200.44;5072915;28;20653;-72
2023/07/07 03:51:38;;;;;;;8.77;5.60;;;;;;;16.90;100.00;93203.06;5070861;28;20044;-72
2023/07/07 03:54:05;;;;;;;7.32;5.60;;;;;;;16.96;100.00;93202.06;5076890;28;20052;-72
2023/07/07 03:56:32;;;;;;;7.93;5.47;;;;;;;17.04;100.00;93205.28;5074595;28;20513;-72
2023/07/07 03:58:59;;;;;;;10.25;5.75;;;;;;;17.09;100.00;93198.28;5070405;28;20087;-72
2023/07/07 04:01:27;;;;;;;12.05;5.95;;;;;;;17.12;100.00;93197.00;5070820;28;20649;-72
2023/07/07 04:03:55;;;;;;;9.07;6.30;;;;;;;17.11;100.00;93192.84;5073938;28;20448;-72
2023/07/07 04:06:22;;;;;;;9.27;5.85;;;;;;;17.18;100.00;93190.81;5071600;28;20501;-72
2023/07/07 04:08:48;;;;;;;8.35;6.00;;;;;;;17.18;100.00;93183.03;5082584;28;20558;-73
2023/07/07 04:11:19;;;;;;;8.38;6.93;;;;;;;17.27;100.00;93185.94;5073441;28;20062;-72
2023/07/07 04:13:47;;;;;;;10.77;7.72;;;;;;;17.46;100.00;93188.13;5081395;28;20135;-72
2023/07/07 04:16:16;;;;;;;12.43;7.32;;;;;;;17.50;100.00;93176.19;5081056;28;20049;-72
2023/07/07 04:18:45;;;;;;;10.77;7.72;;;;;;;17.67;100.00;93186.38;5073186;28;20451;-72
2023/07/07 04:21:15;;;;;;;9.82;7.00;;;;;;;17.80;100.00;93192.13;5077849;28;20044;-72
2023/07/07 04:23:43;;;;;;;9.90;7.03;;;;;;;17.97;100.00;93190.09;5086039;28;20048;-73
2023/07/07 04:26:11;;;;;;;12.27;7.53;;;;;;;18.10;100.00;93196.66;5087538;28;20044;-72
2023/07/07 04:28:39;;;;;;;16.15;7.10;;;;;;;18.26;100.00;93189.69;5076488;28;20044;-72
2023/07/07 04:31:09;;;;;;;10.38;6.53;;;;;;;18.38;100.00;93202.44;5079093;28;20094;-72
2023/07/07 04:33:37;;;;;;;8.80;6.45;;;;;;;18.55;100.00;93211.81;5070231;28;20049;-73
2023/07/07 04:36:08;;;;;;;9.23;6.43;;;;;;;18.70;100.00;93208.44;5076109;28;20048;-73
2023/07/07 04:38:35;;;;;;;10.73;6.57;;;;;;;18.81;100.00;93210.00;5069919;28;20489;-72
2023/07/07 04:41:08;;;;;;;12.15;6.97;;;;;;;18.89;100.00;93210.53;5071520;28;20040;-72
2023/07/07 04:43:36;;;;;;;8.95;6.32;;;;;;;19.05;100.00;93222.50;5070049;28;20045;-72
2023/07/07 04:46:04;;;;;;;12.00;7.38;;;;;;;19.13;100.00;93221.22;5073502;28;20502;-73
2023/07/07 04:48:31;;;;;;;10.07;6.18;;;;;;;19.16;100.00;93212.84;5076532;28;20093;-73
2023/07/07 04:50:59;;;;;;;9.05;6.55;;;;;;;19.23;100.00;93213.38;5074141;28;20056;-73
2023/07/07 04:53:28;;;;;;;12.30;7.05;;;;;;;19.16;100.00;93212.84;5070712;28;20040;-72
2023/07/07 04:55:55;;;;;;;12.05;6.75;;;;;;;19.07;100.00;93212.59;5068850;28;20045;-72
2023/07/07 04:58:22;;;;;;;9.70;7.15;;;;;;;18.99;100.00;93210.53;5069359;28;20048;-73
2023/07/07 05:00:49;;;;;;;11.32;7.60;;;;;;;18.82;100.00;93208.19;5069763;28;20052;-73
2023/07/07 05:03:16;;;;;;;10.18;7.57;;;;;;;18.83;100.00;93209.72;5070551;28;20508;-73
2023/07/07 05:05:42;;;;;;;10.43;7.95;;;;;;;18.88;100.00;93216.78;5072036;28;20141;-73
2023/07/07 05:08:09;;;;;;;15.68;8.68;;;;;;;18.94;100.00;93208.69;5076393;28;20117;-73
2023/07/07 05:10:37;;;;;;;13.85;9.25;;;;;;;18.99;100.00;93217.53;5071468;28;20410;-73
2023/07/07 05:13:04;;;;;;;12.68;7.90;;;;;;;19.07;100.00;93217.06;5072969;28;20448;-73
2023/07/07 05:15:31;;;;;;;11.90;8.38;;;;;;;19.06;100.00;93218.06;5071330;28;20405;-73
2023/07/07 05:17:57;;;;;;;14.80;8.68;;;;;;;19.11;100.00;93217.31;5071650;28;20049;-73
2023/07/07 05:20:24;;;;;;;12.30;8.07;;;;;;;19.16;100.00;93215.47;5071615;28;20532;-73
2023/07/07 05:22:51;;;;;;;12.07;7.80;;;;;;;19.25;100.00;93226.13;5073153;28;20543;-73
2023/07/07 05:25:18;;;;;;;14.75;9.50;;;;;;;19.32;100.00;93218.84;5069459;28;20134;-73
2023/07/07 05:27:46;;;;;;;15.95;9.93;;;;;;;19.43;100.00;93214.38;5072253;28;20048;-73
2023/07/07 05:30:13;;;;;;;16.88;9.70;;;;;;;19.50;100.00;93219.31;5074313;28;20048;-73
2023/07/07 05:32:40;;;;;;;15.68;9.23;;;;;;;19.50;100.00;93220.06;5077541;28;20052;-73
2023/07/07 05:35:07;;;;;;;12.80;8.70;;;;;;;19.64;100.00;93224.72;5072983;28;20395;-73
2023/07/07 05:37:34;;;;;;;15.60;9.27;;;;;;;19.73;100.00;93232.78;5068962;28;20048;-73
2023/07/07 05:40:00;;;;;;;14.57;9.95;;;;;;;19.83;100.00;93237.16;5073670;28;20617;-73
2023/07/07 05:42:29;;;;;;;16.75;10.13;;;;;;;19.95;100.00;93242.09;5073446;28;20061;-73
2023/07/07 05:44:57;;;;;;;14.95;10.20;;;;;;;20.12;100.00;93239.94;5072974;28;20106;-73
2023/07/07 05:47:24;;;;;;;13.65;8.68;;;;;;;20.23;100.00;93247.72;5073169;28;20493;-73
2023/07/07 05:49:53;;;;;;;19.98;10.23;;;;;;;20.36;100.00;93248.97;5070752;28;20727;-73
2023/07/07 05:52:21;;;;;;;17.42;9.70;;;;;;;20.42;100.00;93246.03;5073457;28;20049;-73
2023/07/07 05:54:48;;;;;;;17.38;9.95;;;;;;;20.47;100.00;93247.06;5069911;28;20501;-73
2023/07/07 05:57:14;;;;;;;15.82;9.68;;;;;;;20.57;100.00;93252.22;5072360;28;20053;-73
2023/07/07 05:59:41;;;;;;;17.13;9.90;;;;;;;20.48;100.00;93252.03;5071883;28;20121;-73
2023/07/07 06:02:11;;;;;;;16.00;9.35;;;;;;;20.43;100.00;93258.03;5074108;28;20047;-73
2023/07/07 06:04:38;;;;;;;17.15;10.85;;;;;;;20.41;100.00;93252.31;5071858;28;20045;-73
2023/07/07 06:07:05;;;;;;;18.65;10.98;;;;;;;20.42;100.00;93253.88;5072375;28;20048;-73
2023/07/07 06:09:32;;;;;;;25.52;11.40;;;;;;;20.43;100.00;93254.66;5070398;28;20097;-73
2023/07/07 06:11:58;;;;;;;25.92;12.38;;;;;;;20.34;100.00;93257.06;5072544;28;20053;-73
2023/07/07 06:14:25;;;;;;;21.40;11.88;;;;;;;20.34;100.00;93248.44;5076880;28;20094;-73
2023/07/07 06:16:52;;;;;;;22.98;10.70;;;;;;;20.41;100.00;93251.53;5071231;28;20528;-73
2023/07/07 06:19:20;;;;;;;21.20;10.00;;;;;;;20.48;100.00;93251.22;5072224;28;20109;-73
2023/07/07 06:21:47;;;;;;;20.85;12.73;;;;;;;20.48;100.00;93266.88;5072419;28;20097;-73
2023/07/07 06:24:13;;;;;;;22.75;14.02;;;;;;;20.49;100.00;93268.44;5070920;28;20379;-74
2023/07/07 06:26:40;;;;;;;24.50;12.93;;;;;;;20.58;100.00;93266.03;5070324;28;20102;-73
2023/07/07 06:29:07;;;;;;;22.27;12.70;;;;;;;20.68;100.00;93260.75;5069856;28;20044;-73
2023/07/07 06:31:34;;;;;;;22.98;12.68;;;;;;;20.91;100.00;93261.94;5071836;28;20056;-73
2023/07/07 06:34:00;;;;;;;25.73;12.27;;;;;;;21.09;100.00;93263.09;5079706;28;20052;-73
2023/07/07 06:36:28;;;;;;;16.42;10.82;;;;;;;21.28;100.00;93266.88;5070281;28;20540;-73
2023/07/07 06:38:56;;;;;;;14.93;10.77;;;;;;;21.63;100.00;93270.19;5069499;28;20518;-74
2023/07/07 06:41:23;;;;;;;17.92;11.10;;;;;;;22.02;100.00;93271.88;5071578;28;20118;-73
2023/07/07 06:43:50;;;;;;;20.25;10.90;;;;;;;22.34;100.00;93277.50;5069789;28;20130;-73
2023/07/07 06:46:20;;;;;;;14.68;9.50;;;;;;;22.55;100.00;93277.28;5070054;28;20052;-73
2023/07/07 06:48:47;;;;;;;22.58;12.65;;;;;;;22.76;100.00;93279.59;5069159;28;20452;-73
2023/07/07 06:51:14;;;;;;;13.93;10.02;;;;;;;22.95;100.00;93280.34;5067292;28;20040;-73
2023/07/07 06:53:42;;;;;;;13.75;9.27;;;;;;;23.12;100.00;93288.75;5067869;28;20528;-74
2023/07/07 06:56:10;;;;;;;14.45;9.48;;;;;;;22.95;100.00;93298.69;5067477;28;20298;-74
2023/07/07 06:58:38;;;;;;;14.82;10.02;;;;;;;23.14;100.00;93294.50;5067586;28;20063;-74
2023/07/07 07:01:05;;;;;;;12.35;9.65;;;;;;;23.41;100.00;93298.28;5070386;28;20631;-74
2023/07/07 07:03:31;;;;;;;13.65;9.43;;;;;;;23.41;100.00;93288.56;5070336;28;20458;-74
2023/07/07 07:05:58;;;;;;;14.77;9.05;;;;;;;23.02;100.00;93300.94;5068439;28;20846;-74
2023/07/07 07:08:25;;;;;;;16.88;10.02;;;;;;;23.10;100.00;93291.66;5067797;28;20060;-73
2023/07/07 07:10:55;;;;;;;13.25;9.18;;;;;;;23.03;100.00;93297.25;5067327;28;20506;-74
2023/07/07 07:13:21;;;;;;;18.08;10.40;;;;;;;23.08;100.00;93302.44;5074854;28;20508;-74
2023/07/07 07:15:48;;;;;;;13.40;9.40;;;;;;;22.92;100.00;93308.97;5072100;28;20048;-74
2023/07/07 07:18:15;;;;;;;13.57;9.73;;;;;;;22.91;100.00;93300.31;5071932;28;20391;-74
2023/07/07 07:20:41;;;;;;;16.42;10.45;;;;;;;23.21;100.00;93308.78;5067084;28;20543;-74
2023/07/07 07:23:08;;;;;;;12.00;8.57;;;;;;;23.46;100.00;93319.94;5067703;28;20110;-74
2023/07/07 07:25:35;;;;;;;14.68;9.48;;;;;;;23.90;100.00;93309.22;5071175;28;20052;-73
2023/07/07 07:28:03;;;;;;;12.65;9.18;;;;;;;24.05;100.00;93317.84;5070351;28;20459;-74
2023/07/07 07:30:30;;;;;;;13.80;8.82;;;;;;;23.86;100.00;93314.28;5085523;28;20048;-74
2023/07/07 07:32:58;;;;;;;12.70;9.23;;;;;;;24.39;100.00;93314.09;5083762;28;20454;-74
2023/07/07 07:35:25;;;;;;;12.68;8.80;;;;;;;24.61;100.00;93318.63;5068166;28;20048;-74
2023/07/07 07:37:52;;;;;;;11.73;8.40;;;;;;;25.21;100.00;93323.91;5067073;28;20049;-74
2023/07/07 07:40:20;;;;;;;12.25;8.73;;;;;;;25.43;98.53;93333.63;5067148;28;20089;-74
2023/07/07 07:42:47;;;;;;;13.25;8.20;;;;;;;25.55;98.58;93325.22;5066716;28;20448;-74
2023/07/07 07:45:18;;;;;;;12.27;8.65;;;;;;;26.13;99.25;93319.28;5070112;28;20125;-74
2023/07/07 07:47:46;;;;;;;12.52;8.23;;;;;;;26.45;92.88;93338.44;5075708;28;20052;-75
2023/07/07 07:50:14;;;;;;;12.20;8.30;;;;;;;26.70;92.91;93340.66;5067359;28;20045;-75
2023/07/07 07:52:41;;;;;;;12.23;7.75;;;;;;;26.95;91.87;93336.50;5072216;28;20133;-75
2023/07/07 07:55:08;;;;;;;14.45;9.52;;;;;;;27.29;92.60;93344.72;5081184;28;20048;-74
2023/07/07 07:57:35;;;;;;;9.50;7.28;;;;;;;26.60;90.07;93347.75;5074987;28;20044;-75
2023/07/07 08:00:01;;;;;;;11.20;7.88;;;;;;;26.12;93.11;93296.66;5067507;28;20048;-75
2023/07/07 08:02:29;;;;;;;11.52;7.45;;;;;;;25.94;92.84;93345.81;5084893;28;20681;-75
2023/07/07 08:04:56;;;;;;;11.77;7.85;;;;;;;25.49;100.00;93342.16;5070639;28;20053;-74
2023/07/07 08:07:25;;;;;;;10.20;7.80;;;;;;;24.93;94.45;93352.91;5071879;28;20113;-74
2023/07/07 08:09:52;;;;;;;10.13;7.30;;;;;;;25.37;98.46;93326.94;5077569;28;20169;-75
2023/07/07 08:12:19;;;;;;;11.90;8.20;;;;;;;25.48;99.78;93349.28;5070937;28;20048;-74
2023/07/07 08:14:45;;;;;;;12.55;7.80;;;;;;;25.55;97.00;93346.25;5072586;28;20395;-75
2023/07/07 08:17:14;;;;;;;12.93;7.63;;;;;;;25.50;98.33;93346.34;5071222;28;20154;-75
2023/07/07 08:19:46;;;;;;;13.25;7.30;;;;;;;25.03;100.00;93352.69;5071164;28;20048;-74
2023/07/07 08:22:14;;;;;;;13.38;7.53;;;;;;;24.46;98.65;93361.72;5070911;28;20055;-74
2023/07/07 08:24:46;;;;;;;10.02;6.90;;;;;;;24.40;100.00;93340.03;5073359;28;20051;-74
2023/07/07 08:27:14;;;;;;;8.60;6.15;;;;;;;24.51;94.25;93361.63;5081661;28;20052;-74
2023/07/07 08:29:41;;;;;;;8.77;5.97;;;;;;;24.90;97.95;93354.28;5071588;28;20423;-75
2023/07/07 08:32:09;;;;;;;7.93;5.38;;;;;;;24.69;89.68;93372.28;5070985;28;20048;-74
2023/07/07 08:34:35;;;;;;;8.63;5.32;;;;;;;24.76;91.72;93356.91;5070431;28;20261;-75
2023/07/07 08:37:04;;;;;;;7.97;5.45;;;;;;;24.86;91.80;93348.06;5072654;28;20079;-75
2023/07/07 08:39:31;;;;;;;7.28;5.45;;;;;;;24.77;91.92;93336.69;5070456;28;20490;-74
2023/07/07 08:42:01;;;;;;;7.25;4.93;;;;;;;24.83;97.08;93356.53;5085716;28;20424;-75
2023/07/07 08:44:30;;;;;;;7.95;6.40;;;;;;;24.66;90.88;93360.53;5073624;28;20455;-74
2023/07/07 08:47:10;;;;;;;10.43;6.13;;;;;;;24.84;90.66;93344.19;5069702;28;20052;-75
2023/07/07 08:49:47;;;;;;;7.80;5.53;;;;;;;24.67;94.12;93356.81;5070461;28;20498;-74
2023/07/07 08:52:28;;;;;;;8.07;5.70;;;;;;;24.51;92.23;93359.00;5071106;28;20046;-75
2023/07/07 08:55:02;;;;;;;8.02;6.20;;;;;;;24.33;94.03;93357.25;5070210;28;20094;-74
2023/07/07 08:57:34;;;;;;;8.90;6.25;;;;;;;24.31;95.76;93344.44;5073011;28;20097;-75
2023/07/07 09:00:11;;;;;;;9.38;6.50;;;;;;;24.41;92.78;93349.50;5079605;28;20572;-75
2023/07/07 09:02:57;;;;;;;9.45;6.43;;;;;;;24.54;95.86;93347.13;5086019;28;20047;-75
2023/07/07 09:05:34;;;;;;;8.57;6.20;;;;;;;25.06;96.63;93343.44;5072730;28;20203;-75
2023/07/07 09:08:11;;;;;;;8.05;5.38;;;;;;;25.55;91.71;93351.50;5069506;28;20117;-74
2023/07/07 09:10:42;;;;;;;9.82;6.30;;;;;;;25.43;89.46;93340.75;5069254;28;20098;-75
2023/07/07 09:13:21;;;;;;;10.70;5.57;;;;;;;25.48;83.47;93346.66;5068255;28;20544;-75
2023/07/07 09:16:00;;;;;;;7.03;5.38;;;;;;;25.61;85.69;93345.03;5069336;28;20040;-75
2023/07/07 09:18:33;;;;;;;9.32;5.40;;;;;;;25.25;83.44;93348.50;5071326;28;20052;-75
2023/07/07 09:21:03;;;;;;;7.25;4.95;;;;;;;25.88;82.75;93351.22;5069208;28;20498;-75
2023/07/07 09:23:35;;;;;;;7.00;4.72;;;;;;;26.09;84.24;93342.78;5073131;28;20048;-75
2023/07/07 09:26:08;;;;;;;7.75;5.55;;;;;;;26.28;81.24;93347.06;5069440;28;20130;-76
2023/07/07 09:28:41;;;;;;;6.20;4.35;;;;;;;26.11;81.48;93345.13;5069556;28;20086;-75
2023/07/07 09:31:23;;;;;;;6.90;4.32;;;;;;;26.33;76.41;93354.81;5074625;28;20137;-75
2023/07/07 09:33:51;;;;;;;8.45;4.57;;;;;;;26.32;79.81;93348.00;5075252;28;20052;-75
2023/07/07 09:36:23;;;;;;;7.10;4.82;;;;;;;26.12;79.21;93355.38;5069656;28;20099;-75
2023/07/07 09:39:03;;;;;;;7.57;5.38;;;;;;;25.45;80.96;93346.47;5078596;28;20044;-76
2023/07/07 09:41:40;;;;;;;8.15;5.50;;;;;;;25.16;81.27;93350.28;5068683;28;20052;-75
2023/07/07 09:44:20;;;;;;;7.30;5.72;;;;;;;25.11;82.64;93345.94;5071947;28;20551;-75
2023/07/07 09:46:56;;;;;;;9.27;5.45;;;;;;;25.21;82.92;93352.81;5075146;28;20052;-76
2023/07/07 09:52:34;;;;;;;7.60;4.40;;;;;;;25.03;79.98;93344.00;5076016;28;20574;-76
2023/07/07 09:55:11;;;;;;;6.70;4.38;;;;;;;25.09;76.43;93330.47;5069703;28;20458;-76
2023/07/07 09:57:43;;;;;;;10.48;4.70;;;;;;;25.33;79.68;93347.03;5069693;28;20127;-76
2023/07/07 10:00:17;;;;;;;7.28;4.85;;;;;;;25.29;81.04;93340.81;5072012;28;20444;-75
2023/07/07 10:02:45;;;;;;;7.13;5.10;;;;;;;25.12;82.67;93336.97;5072231;28;20041;-76
2023/07/07 10:05:20;;;;;;;7.22;4.90;;;;;;;25.03;82.72;93341.38;5071844;28;20055;-75
2023/07/07 10:07:47;;;;;;;8.45;5.95;;;;;;;25.06;82.67;93340.81;5071526;28;20498;-75
2023/07/07 10:10:15;;;;;;;8.65;5.30;;;;;;;24.95;84.16;93342.88;5072092;28;20067;-76
2023/07/07 10:12:43;;;;;;;9.35;5.72;;;;;;;24.82;84.09;93339.22;5071464;28;20524;-76
2023/07/07 10:15:35;;;;;;;7.20;5.50;;;;;;;24.48;84.64;93332.56;5071724;28;20189;-75
2023/07/07 10:18:11;;;;;;;7.25;4.95;;;;;;;24.54;83.17;93336.63;5071163;28;20049;-75
2023/07/07 10:20:38;;;;;;;8.05;4.88;;;;;;;24.52;83.09;93334.28;5071131;28;20550;-76
2023/07/07 10:23:09;;;;;;;10.45;6.20;;;;;;;24.00;87.75;93331.84;5071122;28;20048;-76
2023/07/07 10:25:37;;;;;;;8.18;6.35;;;;;;;24.20;91.12;93322.84;5071011;28;20049;-76
2023/07/07 10:28:04;;;;;;;9.05;6.45;;;;;;;24.48;88.96;93332.56;5071461;28;20048;-76
2023/07/07 10:30:31;;;;;;;8.98;6.05;;;;;;;25.01;93.47;93322.53;5071910;28;20041;-76
2023/07/07 10:32:58;;;;;;;8.82;6.07;;;;;;;25.21;83.93;93332.56;5071603;28;20094;-76
2023/07/07 10:35:25;;;;;;;8.10;6.22;;;;;;;25.63;85.56;93318.44;5071503;28;20048;-76
2023/07/07 10:37:52;;;;;;;10.10;5.35;;;;;;;25.83;79.55;93340.06;5071501;28;20041;-76
2023/07/07 10:40:24;;;;;;;8.38;5.80;;;;;;;25.86;84.72;93319.19;5071312;28;20044;-76
2023/07/07 10:42:54;;;;;;;7.63;5.50;;;;;;;26.19;83.59;93318.03;5071064;28;20086;-76
2023/07/07 10:45:22;;;;;;;11.15;6.30;;;;;;;25.88;76.84;93332.81;5071594;28;20041;-76
2023/07/07 10:47:50;;;;;;;7.72;5.05;;;;;;;25.69;78.95;93340.91;5070982;28;20048;-76
2023/07/07 10:50:21;;;;;;;7.65;4.85;;;;;;;25.40;79.01;93328.22;5071682;28;20049;-76
2023/07/07 10:53:04;;;;;;;8.18;5.25;;;;;;;25.03;78.51;93329.03;5071193;28;20051;-76
2023/07/07 10:55:38;;;;;;;8.52;5.97;;;;;;;25.22;80.61;93317.56;5071031;28;20083;-76
2023/07/07 10:58:22;;;;;;;8.15;5.25;;;;;;;25.33;81.19;93318.09;5070945;28;20048;-76
2023/07/07 11:01:00;;;;;;;9.52;6.13;;;;;;;25.84;81.38;93305.56;5086481;28;20044;-76
2023/07/07 11:04:18;;;;;;;9.25;5.97;;;;;;;26.33;78.06;93309.28;5073844;28;20052;-76
2023/07/07 11:06:59;;;;;;;8.05;4.70;;;;;;;26.28;77.20;93310.97;5025132;28;20061;-76
2023/07/07 11:09:47;;;;;;;7.07;5.82;;;;;;;26.34;75.39;93314.25;5067655;28;20048;-76
2023/07/07 11:12:25;;;;;;;6.60;4.78;;;;;;;25.81;77.49;93300.09;5076005;28;20045;-76
2023/07/07 11:15:03;;;;;;;7.55;5.50;;;;;;;25.83;77.30;93306.63;5076069;28;20056;-76
2023/07/07 11:17:53;;;;;;;8.43;5.50;;;;;;;25.41;78.87;93300.84;5073901;28;20053;-76
2023/07/07 11:20:33;;;;;;;7.28;4.93;;;;;;;25.19;79.42;93292.66;5071733;28;20047;-76
2023/07/07 11:23:16;;;;;;;8.10;4.93;;;;;;;25.43;78.59;93288.16;5085273;28;20109;-76
2023/07/07 11:25:50;;;;;;;7.57;5.72;;;;;;;25.74;81.28;93284.78;5066247;28;20044;-76
2023/07/07 11:28:28;;;;;;;6.80;4.78;;;;;;;25.47;78.71;93287.25;5070502;28;20052;-76
2023/07/07 11:31:10;;;;;;;6.90;4.70;;;;;;;25.28;78.48;93294.56;5067277;28;20114;-76
2023/07/07 11:33:43;;;;;;;7.40;4.07;;;;;;;25.47;75.93;93291.72;5071466;28;20053;-77
2023/07/07 11:36:30;;;;;;;7.93;4.85;;;;;;;25.69;76.41;93283.03;5069140;28;20444;-77
2023/07/07 11:39:09;;;;;;;7.35;4.97;;;;;;;25.76;77.64;93287.88;5076602;28;20565;-76